sensor_id;sensor_type;location;lat;lon;timestamp;pressure;altitude;pressure_sealevel;temperature;humidity
1726;BME280;41776;48.260;8.928;2023-06-14T00:00:31;51854.28;;;-145.69;nan
1726;BME280;41776;48.260;8.928;2023-06-14T00:02:59;51862.19;;;-145.69;nan
1726;BME280;41776;48.260;8.928;2023-06-14T00:05:26;51883.97;;;-145.69;nan
1726;BME280;41776;48.260;8.928;2023-06-14T00:07:54;51878.03;;;-145.69;nan
1726;BME280;41776;48.260;8.928;2023-06-14T00:10:21;51868.13;;;-145.69;nan
1726;BME280;41776;48.260;8.928;2023-06-14T00:12:49;51842.38;;;-145.69;nan
1726;BME280;41776;48.260;8.928;2023-06-14T00:15:15;51870.13;;;-145.69;nan
1726;BME280;41776;48.260;8.928;2023-06-14T00:17:42;51878.03;;;-145.69;nan
1726;BME280;41776;48.260;8.928;2023-06-14T00:20:12;51868.13;;;-145.69;nan
1726;BME280;41776;48.260;8.928;2023-06-14T00:22:39;51868.13;;;-145.69;nan
1726;BME280;41776;48.260;8.928;2023-06-14T00:25:06;51876.06;;;-145.69;nan
1726;BME280;41776;48.260;8.928;2023-06-14T00:27:33;51878.03;;;-145.69;nan
1726;BME280;41776;48.260;8.928;2023-06-14T00:30:00;51862.19;;;-145.69;nan
1726;BME280;41776;48.260;8.928;2023-06-14T00:32:27;51842.38;;;-145.69;nan
1726;BME280;41776;48.260;8.928;2023-06-14T00:34:53;51826.56;;;-145.69;nan
1726;BME280;41776;48.260;8.928;2023-06-14T00:37:20;51885.94;;;-145.69;nan
1726;BME280;41776;48.260;8.928;2023-06-14T00:39:46;51866.16;;;-145.69;nan
1726;BME280;41776;48.260;8.928;2023-06-14T00:42:23;51878.03;;;-145.69;nan
1726;BME280;41776;48.260;8.928;2023-06-14T00:44:49;51862.19;;;-145.69;nan
1726;BME280;41776;48.260;8.928;2023-06-14T00:47:17;51878.03;;;-145.69;nan
1726;BME280;41776;48.260;8.928;2023-06-14T00:49:45;51846.34;;;-145.69;nan
1726;BME280;41776;48.260;8.928;2023-06-14T00:52:12;51897.84;;;-145.69;nan
1726;BME280;41776;48.260;8.928;2023-06-14T00:54:39;51862.19;;;-145.69;nan
1726;BME280;41776;48.260;8.928;2023-06-14T00:57:06;51895.84;;;-145.69;nan
1726;BME280;41776;48.260;8.928;2023-06-14T00:59:33;51889.91;;;-145.69;nan
1726;BME280;41776;48.260;8.928;2023-06-14T01:02:02;51874.06;;;-145.69;nan
1726;BME280;41776;48.260;8.928;2023-06-14T01:04:30;51862.19;;;-145.69;nan
1726;BME280;41776;48.260;8.928;2023-06-14T01:07:02;51856.25;;;-145.69;nan
1726;BME280;41776;48.260;8.928;2023-06-14T01:09:39;51889.91;;;-145.69;nan
1726;BME280;41776;48.260;8.928;2023-06-14T01:12:16;51852.28;;;-145.69;nan
1726;BME280;41776;48.260;8.928;2023-06-14T01:14:43;51883.97;;;-145.69;nan
1726;BME280;41776;48.260;8.928;2023-06-14T01:17:11;51882.00;;;-145.69;nan
1726;BME280;41776;48.260;8.928;2023-06-14T01:19:43;51870.13;;;-145.69;nan
1726;BME280;41776;48.260;8.928;2023-06-14T01:22:11;51883.97;;;-145.69;nan
1726;BME280;41776;48.260;8.928;2023-06-14T01:24:39;51872.09;;;-145.69;nan
1726;BME280;41776;48.260;8.928;2023-06-14T01:27:10;51862.19;;;-145.69;nan
1726;BME280;41776;48.260;8.928;2023-06-14T01:29:37;51870.13;;;-145.69;nan
1726;BME280;41776;48.260;8.928;2023-06-14T01:32:05;51872.09;;;-145.69;nan
1726;BME280;41776;48.260;8.928;2023-06-14T01:34:32;51860.22;;;-145.69;nan
1726;BME280;41776;48.260;8.928;2023-06-14T01:37:00;51874.06;;;-145.69;nan
1726;BME280;41776;48.260;8.928;2023-06-14T01:39:28;51897.84;;;-145.69;nan
1726;BME280;41776;48.260;8.928;2023-06-14T01:41:56;51883.97;;;-145.69;nan
1726;BME280;41776;48.260;8.928;2023-06-14T01:44:24;51883.97;;;-145.69;nan
1726;BME280;41776;48.260;8.928;2023-06-14T01:46:51;51880.00;;;-145.69;nan
1726;BME280;41776;48.260;8.928;2023-06-14T01:49:17;51866.16;;;-145.69;nan
1726;BME280;41776;48.260;8.928;2023-06-14T01:51:44;51868.13;;;-145.69;nan
1726;BME280;41776;48.260;8.928;2023-06-14T01:54:10;51883.97;;;-145.69;nan
1726;BME280;41776;48.260;8.928;2023-06-14T01:56:37;51882.00;;;-145.69;nan
1726;BME280;41776;48.260;8.928;2023-06-14T01:59:05;51848.34;;;-145.69;nan
1726;BME280;41776;48.260;8.928;2023-06-14T02:01:31;51832.50;;;-145.69;nan
1726;BME280;41776;48.260;8.928;2023-06-14T02:03:59;51862.19;;;-145.69;nan
1726;BME280;41776;48.260;8.928;2023-06-14T02:06:26;51880.00;;;-145.69;nan
1726;BME280;41776;48.260;8.928;2023-06-14T02:08:53;51889.91;;;-145.69;nan
1726;BME280;41776;48.260;8.928;2023-06-14T02:11:19;51870.13;;;-145.69;nan
1726;BME280;41776;48.260;8.928;2023-06-14T02:13:46;51905.75;;;-145.69;nan
1726;BME280;41776;48.260;8.928;2023-06-14T02:16:14;51878.03;;;-145.69;nan
1726;BME280;41776;48.260;8.928;2023-06-14T02:18:42;51893.88;;;-145.69;nan
1726;BME280;41776;48.260;8.928;2023-06-14T02:21:08;51887.94;;;-145.69;nan
1726;BME280;41776;48.260;8.928;2023-06-14T02:23:35;51927.53;;;-145.69;nan
1726;BME280;41776;48.260;8.928;2023-06-14T02:26:01;51917.63;;;-145.69;nan
1726;BME280;41776;48.260;8.928;2023-06-14T02:28:29;51864.16;;;-145.69;nan
1726;BME280;41776;48.260;8.928;2023-06-14T02:30:55;51901.78;;;-145.69;nan
1726;BME280;41776;48.260;8.928;2023-06-14T02:33:23;51887.94;;;-145.69;nan
1726;BME280;41776;48.260;8.928;2023-06-14T02:35:50;51889.91;;;-145.69;nan
1726;BME280;41776;48.260;8.928;2023-06-14T02:38:18;51883.97;;;-145.69;nan
1726;BME280;41776;48.260;8.928;2023-06-14T02:40:44;51885.94;;;-145.69;nan
1726;BME280;41776;48.260;8.928;2023-06-14T02:43:11;51882.00;;;-145.69;nan
1726;BME280;41776;48.260;8.928;2023-06-14T02:45:38;51862.19;;;-145.69;nan
1726;BME280;41776;48.260;8.928;2023-06-14T02:48:05;51870.13;;;-145.69;nan
1726;BME280;41776;48.260;8.928;2023-06-14T02:50:33;51887.94;;;-145.69;nan
1726;BME280;41776;48.260;8.928;2023-06-14T02:52:59;51882.00;;;-145.69;nan
1726;BME280;41776;48.260;8.928;2023-06-14T02:55:28;51858.22;;;-145.69;nan
1726;BME280;41776;48.260;8.928;2023-06-14T02:57:54;51880.00;;;-145.69;nan
1726;BME280;41776;48.260;8.928;2023-06-14T03:00:20;51903.78;;;-145.69;nan
1726;BME280;41776;48.260;8.928;2023-06-14T03:02:48;51883.97;;;-145.69;nan
1726;BME280;41776;48.260;8.928;2023-06-14T03:05:16;51866.16;;;-145.69;nan
1726;BME280;41776;48.260;8.928;2023-06-14T03:07:47;51931.50;;;-145.69;nan
1726;BME280;41776;48.260;8.928;2023-06-14T03:10:15;51878.03;;;-145.69;nan
1726;BME280;41776;48.260;8.928;2023-06-14T03:12:42;51872.09;;;-145.69;nan
1726;BME280;41776;48.260;8.928;2023-06-14T03:15:09;51885.94;;;-145.69;nan
1726;BME280;41776;48.260;8.928;2023-06-14T03:17:38;51895.84;;;-145.69;nan
1726;BME280;41776;48.260;8.928;2023-06-14T03:20:05;51887.94;;;-145.69;nan
1726;BME280;41776;48.260;8.928;2023-06-14T03:22:35;51893.88;;;-145.69;nan
1726;BME280;41776;48.260;8.928;2023-06-14T03:25:04;51885.94;;;-145.69;nan
1726;BME280;41776;48.260;8.928;2023-06-14T03:27:31;51854.28;;;-145.69;nan
1726;BME280;41776;48.260;8.928;2023-06-14T03:29:58;51883.97;;;-145.69;nan
1726;BME280;41776;48.260;8.928;2023-06-14T03:32:25;51893.88;;;-145.69;nan
1726;BME280;41776;48.260;8.928;2023-06-14T03:34:51;51893.88;;;-145.69;nan
1726;BME280;41776;48.260;8.928;2023-06-14T03:37:19;51903.78;;;-145.69;nan
1726;BME280;41776;48.260;8.928;2023-06-14T03:39:45;51885.94;;;-145.69;nan
1726;BME280;41776;48.260;8.928;2023-06-14T03:42:14;51887.94;;;-145.69;nan
1726;BME280;41776;48.260;8.928;2023-06-14T03:44:40;51915.66;;;-145.69;nan
1726;BME280;41776;48.260;8.928;2023-06-14T03:47:07;51897.84;;;-145.69;nan
1726;BME280;41776;48.260;8.928;2023-06-14T03:49:34;51885.94;;;-145.69;nan
1726;BME280;41776;48.260;8.928;2023-06-14T03:52:02;51856.25;;;-145.69;nan
1726;BME280;41776;48.260;8.928;2023-06-14T03:54:29;51876.06;;;-145.69;nan
1726;BME280;41776;48.260;8.928;2023-06-14T03:56:57;51874.06;;;-145.69;nan
1726;BME280;41776;48.260;8.928;2023-06-14T03:59:25;51864.16;;;-145.69;nan
1726;BME280;41776;48.260;8.928;2023-06-14T04:01:53;51862.19;;;-145.69;nan
1726;BME280;41776;48.260;8.928;2023-06-14T04:04:19;51885.94;;;-145.69;nan
1726;BME280;41776;48.260;8.928;2023-06-14T04:06:46;51838.44;;;-145.69;nan
1726;BME280;41776;48.260;8.928;2023-06-14T04:09:13;51868.13;;;-145.69;nan
1726;BME280;41776;48.260;8.928;2023-06-14T04:11:39;51870.13;;;-145.69;nan
1726;BME280;41776;48.260;8.928;2023-06-14T04:14:06;51905.75;;;-145.69;nan
1726;BME280;41776;48.260;8.928;2023-06-14T04:16:34;51866.16;;;-145.69;nan
1726;BME280;41776;48.260;8.928;2023-06-14T04:19:00;51891.88;;;-145.69;nan
1726;BME280;41776;48.260;8.928;2023-06-14T04:21:27;51919.63;;;-145.69;nan
1726;BME280;41776;48.260;8.928;2023-06-14T04:23:54;51893.88;;;-145.69;nan
1726;BME280;41776;48.260;8.928;2023-06-14T04:26:21;51889.91;;;-145.69;nan
1726;BME280;41776;48.260;8.928;2023-06-14T04:28:49;51887.94;;;-145.69;nan
1726;BME280;41776;48.260;8.928;2023-06-14T04:31:15;51882.00;;;-145.69;nan
1726;BME280;41776;48.260;8.928;2023-06-14T04:33:43;51893.88;;;-145.69;nan
1726;BME280;41776;48.260;8.928;2023-06-14T04:36:12;51880.00;;;-145.69;nan
1726;BME280;41776;48.260;8.928;2023-06-14T04:38:38;51854.28;;;-145.69;nan
1726;BME280;41776;48.260;8.928;2023-06-14T04:41:05;51913.69;;;-145.69;nan
1726;BME280;41776;48.260;8.928;2023-06-14T04:43:31;51909.72;;;-145.69;nan
1726;BME280;41776;48.260;8.928;2023-06-14T04:46:03;51868.13;;;-145.69;nan
1726;BME280;41776;48.260;8.928;2023-06-14T04:48:30;51895.84;;;-145.69;nan
1726;BME280;41776;48.260;8.928;2023-06-14T04:50:59;51911.69;;;-145.69;nan
1726;BME280;41776;48.260;8.928;2023-06-14T04:53:25;51901.78;;;-145.69;nan
1726;BME280;41776;48.260;8.928;2023-06-14T04:55:54;51891.88;;;-145.69;nan
1726;BME280;41776;48.260;8.928;2023-06-14T04:58:20;51889.91;;;-145.69;nan
1726;BME280;41776;48.260;8.928;2023-06-14T05:00:47;51889.91;;;-145.69;nan
1726;BME280;41776;48.260;8.928;2023-06-14T05:03:13;51883.97;;;-145.69;nan
1726;BME280;41776;48.260;8.928;2023-06-14T05:05:40;51878.03;;;-145.69;nan
1726;BME280;41776;48.260;8.928;2023-06-14T05:08:08;51878.03;;;-145.69;nan
1726;BME280;41776;48.260;8.928;2023-06-14T05:10:35;51913.69;;;-145.69;nan
1726;BME280;41776;48.260;8.928;2023-06-14T05:13:02;51878.03;;;-145.69;nan
1726;BME280;41776;48.260;8.928;2023-06-14T05:15:28;51878.03;;;-145.69;nan
1726;BME280;41776;48.260;8.928;2023-06-14T05:17:55;51846.34;;;-145.69;nan
1726;BME280;41776;48.260;8.928;2023-06-14T05:20:22;51848.34;;;-145.69;nan
1726;BME280;41776;48.260;8.928;2023-06-14T05:22:50;51866.16;;;-145.69;nan
1726;BME280;41776;48.260;8.928;2023-06-14T05:25:19;51885.94;;;-145.69;nan
1726;BME280;41776;48.260;8.928;2023-06-14T05:27:46;51858.22;;;-145.69;nan
1726;BME280;41776;48.260;8.928;2023-06-14T05:30:13;51897.84;;;-145.69;nan
1726;BME280;41776;48.260;8.928;2023-06-14T05:32:40;51858.22;;;-145.69;nan
1726;BME280;41776;48.260;8.928;2023-06-14T05:35:07;51842.38;;;-145.69;nan
1726;BME280;41776;48.260;8.928;2023-06-14T05:37:34;51848.34;;;-145.69;nan
1726;BME280;41776;48.260;8.928;2023-06-14T05:40:01;51846.34;;;-145.69;nan
1726;BME280;41776;48.260;8.928;2023-06-14T05:42:31;51781.00;;;-145.69;nan
1726;BME280;41776;48.260;8.928;2023-06-14T05:44:57;51814.66;;;-145.69;nan
1726;BME280;41776;48.260;8.928;2023-06-14T05:47:24;51759.22;;;-145.69;nan
1726;BME280;41776;48.260;8.928;2023-06-14T05:49:50;51719.63;;;-145.69;nan
1726;BME280;41776;48.260;8.928;2023-06-14T05:52:17;51743.38;;;-145.69;nan
1726;BME280;41776;48.260;8.928;2023-06-14T05:54:43;51727.53;;;-145.69;nan
1726;BME280;41776;48.260;8.928;2023-06-14T05:57:10;51739.44;;;-145.69;nan
1726;BME280;41776;48.260;8.928;2023-06-14T05:59:38;51721.59;;;-145.69;nan
1726;BME280;41776;48.260;8.928;2023-06-14T06:02:05;51743.38;;;-145.69;nan
1726;BME280;41776;48.260;8.928;2023-06-14T06:04:31;51749.31;;;-145.69;nan
1726;BME280;41776;48.260;8.928;2023-06-14T06:06:58;51759.22;;;-145.69;nan
1726;BME280;41776;48.260;8.928;2023-06-14T06:09:24;51786.94;;;-145.69;nan
1726;BME280;41776;48.260;8.928;2023-06-14T06:11:51;51751.31;;;-145.69;nan
1726;BME280;41776;48.260;8.928;2023-06-14T06:14:17;51798.81;;;-145.69;nan
1726;BME280;41776;48.260;8.928;2023-06-14T06:16:45;51794.88;;;-145.69;nan
1726;BME280;41776;48.260;8.928;2023-06-14T06:19:12;51783.00;;;-145.69;nan
1726;BME280;41776;48.260;8.928;2023-06-14T06:21:38;51784.97;;;-145.69;nan
1726;BME280;41776;48.260;8.928;2023-06-14T06:24:06;51806.75;;;-145.69;nan
1726;BME280;41776;48.260;8.928;2023-06-14T06:26:32;51794.88;;;-145.69;nan
1726;BME280;41776;48.260;8.928;2023-06-14T06:28:59;51783.00;;;-145.69;nan
1726;BME280;41776;48.260;8.928;2023-06-14T06:31:25;51790.91;;;-145.69;nan
1726;BME280;41776;48.260;8.928;2023-06-14T06:33:54;51773.09;;;-145.69;nan
1726;BME280;41776;48.260;8.928;2023-06-14T06:36:20;51850.31;;;-145.69;nan
1726;BME280;41776;48.260;8.928;2023-06-14T06:38:47;51792.88;;;-145.69;nan
1726;BME280;41776;48.260;8.928;2023-06-14T06:41:14;51794.88;;;-145.69;nan
1726;BME280;41776;48.260;8.928;2023-06-14T06:43:40;51794.88;;;-145.69;nan
1726;BME280;41776;48.260;8.928;2023-06-14T06:46:07;51790.91;;;-145.69;nan
1726;BME280;41776;48.260;8.928;2023-06-14T06:48:33;51783.00;;;-145.69;nan
1726;BME280;41776;48.260;8.928;2023-06-14T06:51:01;51788.94;;;-145.69;nan
1726;BME280;41776;48.260;8.928;2023-06-14T06:53:27;51779.03;;;-145.69;nan
1726;BME280;41776;48.260;8.928;2023-06-14T06:55:54;51779.03;;;-145.69;nan
1726;BME280;41776;48.260;8.928;2023-06-14T06:58:21;51794.88;;;-145.69;nan
1726;BME280;41776;48.260;8.928;2023-06-14T07:00:47;51806.75;;;-145.69;nan
1726;BME280;41776;48.260;8.928;2023-06-14T07:03:14;51794.88;;;-145.69;nan
1726;BME280;41776;48.260;8.928;2023-06-14T07:05:40;51794.88;;;-145.69;nan
1726;BME280;41776;48.260;8.928;2023-06-14T07:08:08;51788.94;;;-145.69;nan
1726;BME280;41776;48.260;8.928;2023-06-14T07:10:35;51781.00;;;-145.69;nan
1726;BME280;41776;48.260;8.928;2023-06-14T07:13:02;51790.91;;;-145.69;nan
1726;BME280;41776;48.260;8.928;2023-06-14T07:15:29;51763.19;;;-145.69;nan
1726;BME280;41776;48.260;8.928;2023-06-14T07:17:56;51777.03;;;-145.69;nan
1726;BME280;41776;48.260;8.928;2023-06-14T07:20:24;51765.16;;;-145.69;nan
1726;BME280;41776;48.260;8.928;2023-06-14T07:22:51;51784.97;;;-145.69;nan
1726;BME280;41776;48.260;8.928;2023-06-14T07:25:19;51763.19;;;-145.69;nan
1726;BME280;41776;48.260;8.928;2023-06-14T07:27:47;51765.16;;;-145.69;nan
1726;BME280;41776;48.260;8.928;2023-06-14T07:30:13;51767.16;;;-145.69;nan
1726;BME280;41776;48.260;8.928;2023-06-14T07:32:40;51779.03;;;-145.69;nan
1726;BME280;41776;48.260;8.928;2023-06-14T07:35:07;51759.22;;;-145.69;nan
1726;BME280;41776;48.260;8.928;2023-06-14T07:37:34;51771.09;;;-145.69;nan
1726;BME280;41776;48.260;8.928;2023-06-14T07:40:01;51786.94;;;-145.69;nan
1726;BME280;41776;48.260;8.928;2023-06-14T07:42:33;51784.97;;;-145.69;nan
1726;BME280;41776;48.260;8.928;2023-06-14T07:45:00;51775.06;;;-145.69;nan
1726;BME280;41776;48.260;8.928;2023-06-14T07:47:26;51719.63;;;-145.69;nan
1726;BME280;41776;48.260;8.928;2023-06-14T07:49:55;51749.31;;;-145.69;nan
1726;BME280;41776;48.260;8.928;2023-06-14T07:52:21;51763.19;;;-145.69;nan
1726;BME280;41776;48.260;8.928;2023-06-14T07:54:48;51751.31;;;-145.69;nan
1726;BME280;41776;48.260;8.928;2023-06-14T07:57:15;51739.44;;;-145.69;nan
1726;BME280;41776;48.260;8.928;2023-06-14T07:59:43;51723.59;;;-145.69;nan
1726;BME280;41776;48.260;8.928;2023-06-14T08:02:09;51743.38;;;-145.69;nan
1726;BME280;41776;48.260;8.928;2023-06-14T08:04:36;51731.50;;;-145.69;nan
1726;BME280;41776;48.260;8.928;2023-06-14T08:07:03;51767.16;;;-145.69;nan
1726;BME280;41776;48.260;8.928;2023-06-14T08:09:30;51717.66;;;-145.69;nan
1726;BME280;41776;48.260;8.928;2023-06-14T08:11:57;51743.38;;;-145.69;nan
1726;BME280;41776;48.260;8.928;2023-06-14T08:14:23;51727.53;;;-145.69;nan
1726;BME280;41776;48.260;8.928;2023-06-14T08:16:51;51751.31;;;-145.69;nan
1726;BME280;41776;48.260;8.928;2023-06-14T08:19:18;51729.53;;;-145.69;nan
1726;BME280;41776;48.260;8.928;2023-06-14T08:21:45;51759.22;;;-145.69;nan
1726;BME280;41776;48.260;8.928;2023-06-14T08:24:12;51784.97;;;-145.69;nan
1726;BME280;41776;48.260;8.928;2023-06-14T08:26:39;51753.28;;;-145.69;nan
1726;BME280;41776;48.260;8.928;2023-06-14T08:29:05;51771.09;;;-145.69;nan
1726;BME280;41776;48.260;8.928;2023-06-14T08:31:33;51771.09;;;-145.69;nan
1726;BME280;41776;48.260;8.928;2023-06-14T08:34:01;51741.41;;;-145.69;nan
1726;BME280;41776;48.260;8.928;2023-06-14T08:36:27;51747.34;;;-145.69;nan
1726;BME280;41776;48.260;8.928;2023-06-14T08:38:53;51745.38;;;-145.69;nan
1726;BME280;41776;48.260;8.928;2023-06-14T08:41:22;51751.31;;;-145.69;nan
1726;BME280;41776;48.260;8.928;2023-06-14T08:43:49;51741.41;;;-145.69;nan
1726;BME280;41776;48.260;8.928;2023-06-14T08:46:17;51731.50;;;-145.69;nan
1726;BME280;41776;48.260;8.928;2023-06-14T08:48:46;51747.34;;;-145.69;nan
1726;BME280;41776;48.260;8.928;2023-06-14T08:51:18;51783.00;;;-145.69;nan
1726;BME280;41776;48.260;8.928;2023-06-14T08:53:51;51759.22;;;-145.69;nan
1726;BME280;41776;48.260;8.928;2023-06-14T08:56:18;51739.44;;;-145.69;nan
1726;BME280;41776;48.260;8.928;2023-06-14T08:58:46;51733.50;;;-145.69;nan
1726;BME280;41776;48.260;8.928;2023-06-14T09:01:13;51753.28;;;-145.69;nan
1726;BME280;41776;48.260;8.928;2023-06-14T09:03:43;51743.38;;;-145.69;nan
1726;BME280;41776;48.260;8.928;2023-06-14T09:06:09;51771.09;;;-145.69;nan
1726;BME280;41776;48.260;8.928;2023-06-14T09:08:40;51767.16;;;-145.69;nan
1726;BME280;41776;48.260;8.928;2023-06-14T09:11:08;51747.34;;;-145.69;nan
1726;BME280;41776;48.260;8.928;2023-06-14T09:13:35;51735.47;;;-145.69;nan
1726;BME280;41776;48.260;8.928;2023-06-14T09:16:01;51759.22;;;-145.69;nan
1726;BME280;41776;48.260;8.928;2023-06-14T09:18:35;51735.47;;;-145.69;nan
1726;BME280;41776;48.260;8.928;2023-06-14T09:21:02;51747.34;;;-145.69;nan
1726;BME280;41776;48.260;8.928;2023-06-14T09:23:29;51769.13;;;-145.69;nan
1726;BME280;41776;48.260;8.928;2023-06-14T09:25:57;51743.38;;;-145.69;nan
1726;BME280;41776;48.260;8.928;2023-06-14T09:28:27;51723.59;;;-145.69;nan
1726;BME280;41776;48.260;8.928;2023-06-14T09:30:53;51737.44;;;-145.69;nan
1726;BME280;41776;48.260;8.928;2023-06-14T09:33:20;51719.63;;;-145.69;nan
1726;BME280;41776;48.260;8.928;2023-06-14T09:35:50;51727.53;;;-145.69;nan
1726;BME280;41776;48.260;8.928;2023-06-14T09:38:17;51733.50;;;-145.69;nan
1726;BME280;41776;48.260;8.928;2023-06-14T09:40:43;51745.38;;;-145.69;nan
1726;BME280;41776;48.260;8.928;2023-06-14T09:43:11;51741.41;;;-145.69;nan
1726;BME280;41776;48.260;8.928;2023-06-14T09:45:38;51747.34;;;-145.69;nan
1726;BME280;41776;48.260;8.928;2023-06-14T09:48:07;51723.59;;;-145.69;nan
1726;BME280;41776;48.260;8.928;2023-06-14T09:50:33;51719.63;;;-145.69;nan
1726;BME280;41776;48.260;8.928;2023-06-14T09:53:03;51727.53;;;-145.69;nan
1726;BME280;41776;48.260;8.928;2023-06-14T09:55:34;51739.44;;;-145.69;nan
1726;BME280;41776;48.260;8.928;2023-06-14T09:58:05;51745.38;;;-145.69;nan
1726;BME280;41776;48.260;8.928;2023-06-14T10:00:35;51717.66;;;-145.69;nan
1726;BME280;41776;48.260;8.928;2023-06-14T10:03:06;51755.25;;;-145.69;nan
1726;BME280;41776;48.260;8.928;2023-06-14T10:05:34;51747.34;;;-145.69;nan
1726;BME280;41776;48.260;8.928;2023-06-14T10:08:04;51733.50;;;-145.69;nan
1726;BME280;41776;48.260;8.928;2023-06-14T10:10:34;51711.72;;;-145.69;nan
1726;BME280;41776;48.260;8.928;2023-06-14T10:13:00;51747.34;;;-145.69;nan
1726;BME280;41776;48.260;8.928;2023-06-14T10:15:30;51739.44;;;-145.69;nan
1726;BME280;41776;48.260;8.928;2023-06-14T10:18:05;51727.53;;;-145.69;nan
1726;BME280;41776;48.260;8.928;2023-06-14T10:20:42;51745.38;;;-145.69;nan
1726;BME280;41776;48.260;8.928;2023-06-14T10:23:13;51725.56;;;-145.69;nan
1726;BME280;41776;48.260;8.928;2023-06-14T10:25:42;51755.25;;;-145.69;nan
1726;BME280;41776;48.260;8.928;2023-06-14T10:28:16;51743.38;;;-145.69;nan
1726;BME280;41776;48.260;8.928;2023-06-14T10:31:06;51711.72;;;-145.69;nan
1726;BME280;41776;48.260;8.928;2023-06-14T10:33:35;51713.69;;;-145.69;nan
1726;BME280;41776;48.260;8.928;2023-06-14T10:38:57;51719.63;;;-145.69;nan
1726;BME280;41776;48.260;8.928;2023-06-14T10:41:25;51717.66;;;-145.69;nan
1726;BME280;41776;48.260;8.928;2023-06-14T10:43:52;51715.66;;;-145.69;nan
1726;BME280;41776;48.260;8.928;2023-06-14T10:46:36;51707.75;;;-145.69;nan
1726;BME280;41776;48.260;8.928;2023-06-14T10:49:04;51699.81;;;-145.69;nan
1726;BME280;41776;48.260;8.928;2023-06-14T10:51:38;51707.75;;;-145.69;nan
1726;BME280;41776;48.260;8.928;2023-06-14T10:54:11;51719.63;;;-145.69;nan
1726;BME280;41776;48.260;8.928;2023-06-14T10:56:46;51727.53;;;-145.69;nan
1726;BME280;41776;48.260;8.928;2023-06-14T10:59:12;51707.75;;;-145.69;nan
1726;BME280;41776;48.260;8.928;2023-06-14T11:01:44;51695.88;;;-145.69;nan
1726;BME280;41776;48.260;8.928;2023-06-14T11:04:20;51747.34;;;-145.69;nan
1726;BME280;41776;48.260;8.928;2023-06-14T11:06:47;51735.47;;;-145.69;nan
1726;BME280;41776;48.260;8.928;2023-06-14T11:09:44;51719.63;;;-145.69;nan
1726;BME280;41776;48.260;8.928;2023-06-14T11:12:17;51717.66;;;-145.69;nan
1726;BME280;41776;48.260;8.928;2023-06-14T11:14:46;51711.72;;;-145.69;nan
1726;BME280;41776;48.260;8.928;2023-06-14T11:17:12;51733.50;;;-145.69;nan
1726;BME280;41776;48.260;8.928;2023-06-14T11:19:40;51701.81;;;-145.69;nan
1726;BME280;41776;48.260;8.928;2023-06-14T11:22:07;51715.66;;;-145.69;nan
1726;BME280;41776;48.260;8.928;2023-06-14T11:24:34;51717.66;;;-145.69;nan
1726;BME280;41776;48.260;8.928;2023-06-14T11:27:00;51691.91;;;-145.69;nan
1726;BME280;41776;48.260;8.928;2023-06-14T11:29:29;51711.72;;;-145.69;nan
1726;BME280;41776;48.260;8.928;2023-06-14T11:31:55;51711.72;;;-145.69;nan
1726;BME280;41776;48.260;8.928;2023-06-14T11:34:22;51723.59;;;-145.69;nan
1726;BME280;41776;48.260;8.928;2023-06-14T11:36:49;51731.50;;;-145.69;nan
1726;BME280;41776;48.260;8.928;2023-06-14T11:39:16;51687.94;;;-145.69;nan
1726;BME280;41776;48.260;8.928;2023-06-14T11:41:44;51695.88;;;-145.69;nan
1726;BME280;41776;48.260;8.928;2023-06-14T11:44:11;51707.75;;;-145.69;nan
1726;BME280;41776;48.260;8.928;2023-06-14T11:46:38;51680.03;;;-145.69;nan
1726;BME280;41776;48.260;8.928;2023-06-14T11:49:04;51672.09;;;-145.69;nan
1726;BME280;41776;48.260;8.928;2023-06-14T11:51:34;51676.06;;;-145.69;nan
1726;BME280;41776;48.260;8.928;2023-06-14T11:54:04;51699.81;;;-145.69;nan
1726;BME280;41776;48.260;8.928;2023-06-14T11:56:32;51705.75;;;-145.69;nan
1726;BME280;41776;48.260;8.928;2023-06-14T11:58:59;51691.91;;;-145.69;nan
1726;BME280;41776;48.260;8.928;2023-06-14T12:01:26;51695.88;;;-145.69;nan
1726;BME280;41776;48.260;8.928;2023-06-14T12:03:53;51703.78;;;-145.69;nan
1726;BME280;41776;48.260;8.928;2023-06-14T12:06:31;51689.94;;;-145.69;nan
1726;BME280;41776;48.260;8.928;2023-06-14T12:09:06;51687.94;;;-145.69;nan
1726;BME280;41776;48.260;8.928;2023-06-14T12:11:38;51695.88;;;-145.69;nan
1726;BME280;41776;48.260;8.928;2023-06-14T12:14:05;51701.81;;;-145.69;nan
1726;BME280;41776;48.260;8.928;2023-06-14T12:16:32;51685.97;;;-145.69;nan
1726;BME280;41776;48.260;8.928;2023-06-14T12:19:12;51689.94;;;-145.69;nan
1726;BME280;41776;48.260;8.928;2023-06-14T12:21:39;51695.88;;;-145.69;nan
1726;BME280;41776;48.260;8.928;2023-06-14T12:24:07;51699.81;;;-145.69;nan
1726;BME280;41776;48.260;8.928;2023-06-14T12:26:38;51699.81;;;-145.69;nan
1726;BME280;41776;48.260;8.928;2023-06-14T12:29:05;51703.78;;;-145.69;nan
1726;BME280;41776;48.260;8.928;2023-06-14T12:31:32;51683.97;;;-145.69;nan
1726;BME280;41776;48.260;8.928;2023-06-14T12:34:01;51695.88;;;-145.69;nan
1726;BME280;41776;48.260;8.928;2023-06-14T12:36:27;51683.97;;;-145.69;nan
1726;BME280;41776;48.260;8.928;2023-06-14T12:38:54;51662.22;;;-145.69;nan
1726;BME280;41776;48.260;8.928;2023-06-14T12:41:22;51701.81;;;-145.69;nan
1726;BME280;41776;48.260;8.928;2023-06-14T12:43:50;51695.88;;;-145.69;nan
1726;BME280;41776;48.260;8.928;2023-06-14T12:46:17;51658.25;;;-145.69;nan
1726;BME280;41776;48.260;8.928;2023-06-14T12:48:45;51680.03;;;-145.69;nan
1726;BME280;41776;48.260;8.928;2023-06-14T12:51:12;51644.38;;;-145.69;nan
1726;BME280;41776;48.260;8.928;2023-06-14T12:53:38;51660.22;;;-145.69;nan
1726;BME280;41776;48.260;8.928;2023-06-14T12:56:06;51689.94;;;-145.69;nan
1726;BME280;41776;48.260;8.928;2023-06-14T12:58:34;51703.78;;;-145.69;nan
1726;BME280;41776;48.260;8.928;2023-06-14T13:01:00;51660.22;;;-145.69;nan
1726;BME280;41776;48.260;8.928;2023-06-14T13:03:27;51695.88;;;-145.69;nan
1726;BME280;41776;48.260;8.928;2023-06-14T13:05:54;51672.09;;;-145.69;nan
1726;BME280;41776;48.260;8.928;2023-06-14T13:08:20;51652.31;;;-145.69;nan
1726;BME280;41776;48.260;8.928;2023-06-14T13:10:51;51656.25;;;-145.69;nan
1726;BME280;41776;48.260;8.928;2023-06-14T13:13:17;51632.50;;;-145.69;nan
1726;BME280;41776;48.260;8.928;2023-06-14T13:15:45;51610.72;;;-145.69;nan